createdAt,value
2018-07-01T00:02:06.226Z,101326.12
2018-07-01T00:04:36.110Z,101329.06
2018-07-01T00:07:06.036Z,101324.34
2018-07-01T00:09:37.531Z,101325.35
2018-07-01T00:12:07.496Z,101318.58
2018-07-01T00:14:39.615Z,101316.20
2018-07-01T00:17:10.082Z,101322.78
2018-07-01T00:19:42.664Z,101323.70
2018-07-01T00:22:17.950Z,101315.52
2018-07-01T00:24:51.333Z,101318.05
2018-07-01T00:27:20.248Z,101319.71
2018-07-01T00:29:48.994Z,101324.91
2018-07-01T00:32:17.901Z,101319.79
2018-07-01T00:34:51.630Z,101321.61
2018-07-01T00:37:22.830Z,101319.10
2018-07-01T00:39:53.818Z,101319.02
2018-07-01T00:42:24.358Z,101313.70
2018-07-01T00:44:54.212Z,101310.69
2018-07-01T00:47:26.788Z,101313.91
2018-07-01T00:49:59.575Z,101311.45
2018-07-01T00:52:30.474Z,101307.33
2018-07-01T00:57:38.569Z,101298.36
2018-07-01T01:02:44.367Z,101288.72
2018-07-01T01:05:14.172Z,101285.26
2018-07-01T01:07:44.933Z,101276.99
2018-07-01T01:10:13.866Z,101275.18
2018-07-01T01:12:42.671Z,101271.55
2018-07-01T01:15:11.438Z,101271.55
2018-07-01T01:17:40.460Z,101272.67
2018-07-01T01:20:10.543Z,101279.09
2018-07-01T01:22:40.792Z,101275.70
2018-07-01T01:25:14.155Z,101279.77
2018-07-01T01:27:44.328Z,101280.62
2018-07-01T01:30:15.534Z,101279.00
2018-07-01T01:32:44.418Z,101280.65
2018-07-01T01:35:13.222Z,101277.14
2018-07-01T01:37:42.250Z,101279.23
2018-07-01T01:40:12.593Z,101278.19
2018-07-01T01:42:48.831Z,101279.80
2018-07-01T01:45:27.880Z,101287.92
2018-07-01T01:48:03.758Z,101283.25
2018-07-01T01:50:42.027Z,101286.03
2018-07-01T01:54:17.215Z,101284.86
2018-07-01T01:56:55.475Z,101285.46
2018-07-01T01:59:34.018Z,101286.46
2018-07-01T02:02:10.008Z,101280.06
2018-07-01T02:04:46.422Z,101281.66
2018-07-01T02:07:30.455Z,101280.28
2018-07-01T02:10:00.181Z,101281.73
2018-07-01T02:12:29.058Z,101283.82
2018-07-01T02:15:02.026Z,101285.45
2018-07-01T02:17:35.552Z,101286.34
2018-07-01T02:20:06.079Z,101291.92
2018-07-01T02:22:43.466Z,101289.58
2018-07-01T02:25:18.851Z,101296.97
2018-07-01T02:27:52.552Z,101297.73
2018-07-01T02:30:23.381Z,101288.22
2018-07-01T02:32:52.851Z,101291.51
2018-07-01T02:35:21.667Z,101293.32
2018-07-01T02:37:50.487Z,101299.96
2018-07-01T02:40:19.756Z,101296.61
2018-07-01T02:42:50.073Z,101300.38
2018-07-01T02:45:21.045Z,101298.69
2018-07-01T02:47:52.081Z,101290.99
2018-07-01T02:50:22.499Z,101299.59
2018-07-01T02:52:52.415Z,101297.20
2018-07-01T02:55:24.137Z,101296.62
2018-07-01T02:57:52.922Z,101293.91
2018-07-01T03:00:21.702Z,101295.88
2018-07-01T03:02:50.638Z,101298.31
2018-07-01T03:05:20.528Z,101294.09
2018-07-01T03:07:50.123Z,101296.41
2018-07-01T03:10:20.442Z,101289.41
2018-07-01T03:12:50.091Z,101284.73
2018-07-01T03:15:22.173Z,101282.70
2018-07-01T03:17:52.123Z,101286.33
2018-07-01T03:20:22.097Z,101284.63
2018-07-01T03:22:50.827Z,101281.73
2018-07-01T03:25:19.610Z,101278.16
2018-07-01T03:27:48.333Z,101284.44
2018-07-01T03:30:17.310Z,101281.78
2018-07-01T03:32:47.015Z,101278.91
2018-07-01T03:35:20.522Z,101275.93
2018-07-01T03:37:50.475Z,101281.23
2018-07-01T03:40:20.346Z,101280.17
2018-07-01T03:42:51.178Z,101274.17
2018-07-01T03:45:22.015Z,101271.27
2018-07-01T03:47:52.202Z,101271.56
2018-07-01T03:50:22.158Z,101274.81
2018-07-01T03:52:55.747Z,101273.16
2018-07-01T03:55:26.178Z,101272.94
2018-07-01T03:57:54.995Z,101278.36
2018-07-01T04:00:23.815Z,101283.19
2018-07-01T04:02:52.674Z,101286.47
2018-07-01T04:05:22.124Z,101287.43
2018-07-01T04:07:52.757Z,101291.41
2018-07-01T04:10:22.176Z,101286.95
2018-07-01T04:12:52.126Z,101290.45
2018-07-01T04:15:22.140Z,101286.47
2018-07-01T04:17:50.905Z,101280.68
2018-07-01T04:20:19.664Z,101279.69
2018-07-01T04:22:48.390Z,101273.75
2018-07-01T04:25:17.299Z,101279.79
2018-07-01T04:27:47.413Z,101280.64
2018-07-01T04:30:18.249Z,101281.19
2018-07-01T04:32:48.202Z,101279.23
2018-07-01T04:35:18.127Z,101280.08
2018-07-01T04:37:51.582Z,101277.64
2018-07-01T04:40:20.932Z,101270.73
2018-07-01T04:42:49.865Z,101270.26
2018-07-01T04:45:18.662Z,101281.56
2018-07-01T04:47:47.448Z,101283.48
2018-07-01T04:50:17.189Z,101284.44
2018-07-01T04:52:47.481Z,101285.91
2018-07-01T04:55:18.179Z,101286.55
2018-07-01T04:57:48.137Z,101291.85
2018-07-01T05:00:17.107Z,101297.92
2018-07-01T05:02:45.917Z,101295.52
2018-07-01T05:05:14.802Z,101301.55
2018-07-01T05:07:45.843Z,101302.62
2018-07-01T05:10:16.341Z,101295.13
2018-07-01T05:12:46.290Z,101298.48
2018-07-01T05:15:16.544Z,101300.02
2018-07-01T05:17:46.144Z,101308.35
2018-07-01T05:20:15.038Z,101306.03
2018-07-01T05:22:43.993Z,101300.72
2018-07-01T05:25:12.822Z,101299.39
2018-07-01T05:27:42.428Z,101302.78
2018-07-01T05:30:12.367Z,101299.13
2018-07-01T05:32:42.607Z,101290.56
2018-07-01T05:35:13.034Z,101287.76
2018-07-01T05:37:43.422Z,101282.17
2018-07-01T05:40:12.191Z,101279.73
2018-07-01T05:42:41.323Z,101269.48
2018-07-01T05:45:10.246Z,101267.87
2018-07-01T05:47:40.250Z,101269.42
2018-07-01T05:50:10.095Z,101268.30
2018-07-01T05:52:40.111Z,101267.52
2018-07-01T05:55:10.483Z,101261.81
2018-07-01T05:57:41.790Z,101258.37
2018-07-01T06:00:10.734Z,101260.63
2018-07-01T06:02:39.498Z,101263.13
2018-07-01T06:05:08.423Z,101262.58
2018-07-01T06:07:37.633Z,101263.84
2018-07-01T06:10:08.152Z,101270.42
2018-07-01T06:12:38.634Z,101273.33
2018-07-01T06:15:08.254Z,101271.48
2018-07-01T06:17:38.160Z,101270.56
2018-07-01T06:20:09.078Z,101271.82
2018-07-01T06:22:37.859Z,101278.06
2018-07-01T06:25:06.722Z,101280.13
2018-07-01T06:27:35.748Z,101284.41
2018-07-01T06:30:06.203Z,101279.70
2018-07-01T06:32:36.298Z,101278.16
2018-07-01T06:35:10.271Z,101275.10
2018-07-01T06:37:40.336Z,101282.42
2018-07-01T06:40:11.514Z,101284.59
2018-07-01T06:42:40.371Z,101279.90
2018-07-01T06:45:09.226Z,101274.88
2018-07-01T06:47:38.127Z,101273.69
2018-07-01T06:50:07.353Z,101272.65
2018-07-01T06:52:38.832Z,101265.47
2018-07-01T06:55:10.260Z,101272.05
2018-07-01T06:57:40.316Z,101263.17
2018-07-01T07:00:10.540Z,101264.08
2018-07-01T07:02:42.301Z,101268.13
2018-07-01T07:05:11.631Z,101266.99
2018-07-01T07:07:43.725Z,101267.83
2018-07-01T07:10:12.718Z,101276.64
2018-07-01T07:12:41.746Z,101279.52
2018-07-01T07:15:10.569Z,101275.20
2018-07-01T07:17:39.693Z,101277.37
2018-07-01T07:20:10.759Z,101275.36
2018-07-01T07:22:41.035Z,101280.03
2018-07-01T07:25:12.103Z,101282.56
2018-07-01T07:27:42.190Z,101286.70
2018-07-01T07:30:12.326Z,101281.56
2018-07-01T07:32:42.731Z,101271.64
2018-07-01T07:35:11.553Z,101272.86
2018-07-01T07:37:40.843Z,101278.75
2018-07-01T07:40:09.870Z,101280.70
2018-07-01T07:42:43.013Z,101282.59
2018-07-01T07:45:16.279Z,101273.81
2018-07-01T07:47:51.692Z,101274.27
2018-07-01T07:50:23.095Z,101269.34
2018-07-01T07:52:54.855Z,101277.05
2018-07-01T07:55:24.936Z,101287.28
2018-07-01T07:57:54.795Z,101287.69
2018-07-01T08:00:23.517Z,101285.07
2018-07-01T08:02:53.134Z,101290.95
2018-07-01T08:05:23.163Z,101293.98
2018-07-01T08:07:52.504Z,101294.16
2018-07-01T08:10:22.223Z,101297.50
2018-07-01T08:12:51.181Z,101302.34
2018-07-01T08:15:19.888Z,101307.99
2018-07-01T08:17:48.810Z,101317.96
2018-07-01T08:20:17.997Z,101309.91
2018-07-01T08:22:47.295Z,101315.36
2018-07-01T08:25:17.002Z,101322.81
2018-07-01T08:27:48.248Z,101325.25
2018-07-01T08:30:17.488Z,101329.36
2018-07-01T08:32:46.820Z,101331.95
2018-07-01T08:35:16.711Z,101328.58
2018-07-01T08:37:47.520Z,101335.77
2018-07-01T08:40:16.529Z,101337.23
2018-07-01T08:42:45.216Z,101341.51
2018-07-01T08:45:14.135Z,101339.98
2018-07-01T08:47:45.647Z,101336.59
2018-07-01T09:02:25.750Z,101358.45
2018-07-01T09:04:54.572Z,101365.86
2018-07-01T09:07:23.607Z,101375.63
2018-07-01T09:13:03.702Z,101378.35
2018-07-01T09:18:39.484Z,101396.06
2018-07-01T09:21:09.521Z,101387.80
2018-07-01T09:23:38.485Z,101390.91
2018-07-01T09:26:07.388Z,101383.20
2018-07-01T09:28:36.391Z,101391.95
2018-07-01T09:31:05.560Z,101401.44
2018-07-01T10:01:01.529Z,101425.70
2018-07-01T10:03:30.492Z,101435.88
2018-07-01T10:05:59.689Z,101432.75
2018-07-01T10:57:05.231Z,101465.13
2018-07-01T10:59:34.122Z,101463.34
2018-07-01T11:02:03.117Z,101470.94
2018-07-01T11:34:40.632Z,101448.40
2018-07-01T11:37:09.847Z,101450.20
2018-07-01T11:39:39.080Z,101448.40
2018-07-01T11:42:24.178Z,101447.42
2018-07-01T11:44:55.666Z,101450.23
2018-07-01T11:47:30.191Z,101459.59
2018-07-01T11:53:02.391Z,101460.45
2018-07-01T11:55:31.298Z,101457.19
2018-07-01T11:58:00.169Z,101457.66
2018-07-01T12:00:29.323Z,101451.41
2018-07-01T12:21:15.579Z,101422.52
2018-07-01T12:23:44.546Z,101431.92
2018-07-01T12:26:13.542Z,101428.77
2018-07-01T12:41:10.810Z,101420.91
2018-07-01T12:43:40.530Z,101410.41
2018-07-01T12:46:09.486Z,101412.45
2018-07-01T12:48:38.343Z,101409.54
2018-07-01T13:00:27.225Z,101407.76
2018-07-01T13:02:56.114Z,101413.17
2018-07-01T13:05:25.194Z,101410.27
2018-07-01T13:07:54.987Z,101397.38
2018-07-01T13:22:34.558Z,101388.01
2018-07-01T13:25:03.525Z,101379.66
2018-07-01T13:27:32.514Z,101372.77
2018-07-01T13:30:02.866Z,101370.34
2018-07-01T13:46:18.355Z,101350.14
2018-07-01T13:48:47.403Z,101356.77
2018-07-01T13:51:16.141Z,101349.66
2018-07-01T13:56:47.158Z,101353.98
2018-07-01T13:59:22.229Z,101355.52
2018-07-01T14:01:54.540Z,101357.58
2018-07-01T14:04:30.726Z,101358.77
2018-07-01T14:06:59.503Z,101348.63
2018-07-01T14:09:28.347Z,101344.02
2018-07-01T14:11:57.255Z,101349.91
2018-07-01T14:14:28.251Z,101354.96
2018-07-01T14:17:06.791Z,101362.40
2018-07-01T14:19:42.246Z,101366.19
2018-07-01T14:22:15.751Z,101370.05
2018-07-01T14:27:34.621Z,101383.07
2018-07-01T14:30:14.330Z,101385.20
2018-07-01T14:32:50.451Z,101386.33
2018-07-01T14:35:28.224Z,101391.59
2018-07-01T14:38:08.199Z,101386.53
2018-07-01T14:40:37.045Z,101390.73
2018-07-01T14:43:05.903Z,101387.97
2018-07-01T14:45:34.752Z,101380.59
2018-07-01T14:48:05.083Z,101378.22
2018-07-01T14:50:39.302Z,101375.84
2018-07-01T14:53:18.461Z,101380.86
2018-07-01T14:55:58.488Z,101384.93
2018-07-01T14:58:35.360Z,101381.12
2018-07-01T15:01:15.147Z,101376.47
2018-07-01T15:06:51.743Z,101374.37
2018-07-01T15:09:31.986Z,101364.17
2018-07-01T15:14:35.937Z,101346.53
2018-07-01T15:17:04.572Z,101348.45
2018-07-01T15:19:33.344Z,101341.97
2018-07-01T15:43:31.309Z,101342.89
2018-07-01T15:45:59.964Z,101346.64
2018-07-01T15:48:28.550Z,101344.81
2018-07-01T16:15:15.392Z,101337.34
2018-07-01T16:22:58.749Z,101324.52
2018-07-01T16:25:32.901Z,101335.42
2018-07-01T16:28:06.695Z,101333.97
2018-07-01T16:30:35.477Z,101333.16
2018-07-01T16:47:32.270Z,101351.68
2018-07-01T16:50:00.918Z,101355.50
2018-07-01T16:52:29.644Z,101355.14
2018-07-01T16:54:58.591Z,101354.40
2018-07-01T16:57:28.869Z,101351.72
2018-07-01T16:59:58.139Z,101352.58
2018-07-01T17:02:27.110Z,101342.55
2018-07-01T17:04:57.268Z,101347.67
2018-07-01T17:07:26.381Z,101343.80
2018-07-01T17:09:56.088Z,101349.30
2018-07-01T17:12:25.679Z,101352.23
2018-07-01T17:14:54.867Z,101343.68
2018-07-01T17:27:03.209Z,101348.59
2018-07-01T17:29:31.946Z,101356.87
2018-07-01T17:32:05.855Z,101353.95
2018-07-01T17:43:10.999Z,101351.69
2018-07-01T17:45:40.095Z,101348.22
2018-07-01T17:48:27.924Z,101361.02
2018-07-01T17:52:21.199Z,101348.89
2018-07-01T17:54:49.970Z,101347.31
2018-07-01T17:58:00.524Z,101355.67
2018-07-01T18:05:20.933Z,101350.72
2018-07-01T18:07:49.970Z,101353.88
2018-07-01T18:10:19.431Z,101356.23
2018-07-01T18:12:48.371Z,101353.25
2018-07-01T18:15:17.130Z,101355.61
2018-07-01T18:17:46.065Z,101363.62
2018-07-01T18:20:14.839Z,101355.56
2018-07-01T18:23:00.808Z,101361.02
2018-07-01T18:25:17.196Z,101364.48
2018-07-01T18:27:49.651Z,101372.84
2018-07-01T18:30:17.526Z,101369.39
2018-07-01T18:32:48.455Z,101369.81
2018-07-01T18:35:17.164Z,101373.51
2018-07-01T18:37:45.934Z,101380.80
2018-07-01T18:40:15.463Z,101384.56
2018-07-01T18:57:47.562Z,101385.58
2018-07-01T19:00:16.275Z,101378.50
2018-07-01T19:02:45.175Z,101383.50
2018-07-01T19:05:13.938Z,101388.84
2018-07-01T19:07:42.923Z,101390.52
2018-07-01T19:10:12.130Z,101392.99
2018-07-01T19:12:41.331Z,101387.71
2018-07-01T19:15:10.335Z,101394.38
2018-07-01T19:17:39.586Z,101390.89
2018-07-01T19:20:08.540Z,101393.03
2018-07-01T19:22:37.540Z,101398.02
2018-07-01T19:25:06.354Z,101397.56
2018-07-01T19:27:35.087Z,101404.28
2018-07-01T19:30:04.211Z,101403.14
2018-07-01T19:32:33.821Z,101409.37
2018-07-01T19:35:02.960Z,101405.30
2018-07-01T19:37:32.043Z,101396.41
2018-07-01T19:40:01.269Z,101399.98
2018-07-01T19:42:30.522Z,101402.06
2018-07-01T19:44:59.278Z,101402.97
2018-07-01T19:47:28.270Z,101400.74
2018-07-01T19:49:57.207Z,101405.23
2018-07-01T19:52:26.147Z,101405.66
2018-07-01T19:54:55.693Z,101409.70
2018-07-01T19:57:25.126Z,101412.27
2018-07-01T19:59:54.450Z,101408.22
2018-07-01T20:02:23.646Z,101412.47
2018-07-01T20:04:52.984Z,101414.33
2018-07-01T20:07:21.781Z,101415.86
2018-07-01T20:09:50.536Z,101412.77
2018-07-01T20:12:19.327Z,101412.30
2018-07-01T20:14:48.498Z,101412.72
2018-07-01T20:17:18.545Z,101407.94
2018-07-01T20:19:51.171Z,101408.12
2018-07-01T20:22:20.848Z,101408.91
2018-07-01T20:24:51.058Z,101412.34
2018-07-01T20:27:20.983Z,101411.09
2018-07-01T20:29:51.952Z,101412.34
2018-07-01T20:32:24.005Z,101415.66
2018-07-01T20:34:55.231Z,101419.55
2018-07-01T20:37:26.838Z,101422.41
2018-07-01T20:39:59.419Z,101419.72
2018-07-01T20:42:28.094Z,101426.13
2018-07-01T20:44:56.819Z,101431.22
2018-07-01T20:47:25.706Z,101432.80
2018-07-01T20:49:54.568Z,101443.42
2018-07-01T20:52:24.527Z,101447.51
2018-07-01T20:54:54.825Z,101448.02
2018-07-01T20:57:25.125Z,101452.48
2018-07-01T20:59:56.565Z,101453.95
2018-07-01T21:02:26.541Z,101449.72
2018-07-01T21:04:56.606Z,101447.06
2018-07-01T21:07:26.337Z,101444.79
2018-07-01T21:09:55.646Z,101443.09
2018-07-01T21:12:27.456Z,101457.42
2018-07-01T21:14:57.879Z,101450.46
2018-07-01T21:17:27.530Z,101459.36
2018-07-01T21:19:57.310Z,101461.91
2018-07-01T21:22:26.624Z,101462.02
2018-07-01T21:24:56.662Z,101458.75
2018-07-01T21:27:26.486Z,101468.39
2018-07-01T21:29:55.180Z,101467.91
2018-07-01T21:32:23.944Z,101467.55
2018-07-01T21:34:52.724Z,101469.11
2018-07-01T21:37:21.834Z,101468.97
2018-07-01T21:39:51.623Z,101468.49
2018-07-01T21:42:21.560Z,101467.03
2018-07-01T21:44:50.607Z,101470.89
2018-07-01T21:47:20.536Z,101474.63
2018-07-01T21:49:50.476Z,101478.70
2018-07-01T21:52:19.618Z,101473.77
2018-07-01T21:54:56.119Z,101479.06
2018-07-01T21:57:26.746Z,101482.43
2018-07-01T21:59:56.939Z,101477.61
2018-07-01T22:02:26.665Z,101478.09
2018-07-01T22:04:57.807Z,101480.39
2018-07-01T22:07:26.658Z,101483.52
2018-07-01T22:09:55.426Z,101491.59
2018-07-01T22:12:35.183Z,101489.41
2018-07-01T22:15:22.264Z,101494.32
2018-07-01T22:17:52.458Z,101490.59
2018-07-01T22:20:24.171Z,101492.76
2018-07-01T22:22:55.821Z,101491.56
2018-07-01T22:25:25.505Z,101489.27
2018-07-01T22:27:54.992Z,101484.45
2018-07-01T22:30:26.875Z,101486.38
2018-07-01T22:32:56.550Z,101490.10
2018-07-01T22:35:26.611Z,101487.45
2018-07-01T22:37:58.229Z,101486.50
2018-07-01T22:40:28.898Z,101483.01
2018-07-01T22:43:00.107Z,101486.36
2018-07-01T22:45:31.603Z,101491.31
2018-07-01T22:48:02.663Z,101486.12
2018-07-01T22:50:35.172Z,101485.17
2018-07-01T22:53:07.384Z,101488.06
2018-07-01T22:55:38.785Z,101481.82
2018-07-01T22:58:09.399Z,101480.84
2018-07-01T23:00:40.294Z,101480.73
2018-07-01T23:03:20.631Z,101468.94
2018-07-01T23:05:50.795Z,101468.59
2018-07-01T23:08:19.639Z,101455.94
2018-07-01T23:10:48.438Z,101456.91
2018-07-01T23:13:17.297Z,101463.77
2018-07-01T23:15:47.731Z,101461.45
2018-07-01T23:18:19.242Z,101456.29
2018-07-01T23:20:54.526Z,101449.91
2018-07-01T23:23:24.853Z,101452.17
2018-07-01T23:25:56.523Z,101452.44
2018-07-01T23:28:27.239Z,101450.37
2018-07-01T23:31:03.051Z,101450.97
2018-07-01T23:33:38.836Z,101449.27
2018-07-01T23:36:08.813Z,101448.56
2018-07-01T23:38:42.689Z,101446.52
2018-07-01T23:41:13.866Z,101446.27
2018-07-01T23:43:46.584Z,101444.70
2018-07-01T23:46:19.580Z,101442.53
2018-07-01T23:48:50.822Z,101439.64
2018-07-01T23:51:19.706Z,101444.79
2018-07-01T23:53:48.478Z,101445.02
2018-07-01T23:56:17.349Z,101451.38
2018-07-01T23:58:46.615Z,101450.66
